sensor_id;sensor_type;location;lat;lon;timestamp;P1;durP1;ratioP1;P2;durP2;ratioP2
2225;SDS011;1119;48.288;8.726;2022-09-24T00:00:57;7.23;;;6.60;;
2225;SDS011;1119;48.288;8.726;2022-09-24T00:03:32;8.27;;;7.57;;
2225;SDS011;1119;48.288;8.726;2022-09-24T00:06:00;8.00;;;6.53;;
2225;SDS011;1119;48.288;8.726;2022-09-24T00:08:28;7.87;;;7.20;;
2225;SDS011;1119;48.288;8.726;2022-09-24T00:10:59;8.07;;;6.87;;
2225;SDS011;1119;48.288;8.726;2022-09-24T00:13:28;7.10;;;6.57;;
2225;SDS011;1119;48.288;8.726;2022-09-24T00:16:00;8.30;;;7.60;;
2225;SDS011;1119;48.288;8.726;2022-09-24T00:18:30;7.20;;;6.47;;
2225;SDS011;1119;48.288;8.726;2022-09-24T00:20:57;7.40;;;6.80;;
2225;SDS011;1119;48.288;8.726;2022-09-24T00:23:25;7.30;;;6.70;;
2225;SDS011;1119;48.288;8.726;2022-09-24T00:25:52;7.83;;;7.20;;
2225;SDS011;1119;48.288;8.726;2022-09-24T00:28:37;7.13;;;6.63;;
2225;SDS011;1119;48.288;8.726;2022-09-24T00:31:06;8.40;;;7.80;;
2225;SDS011;1119;48.288;8.726;2022-09-24T00:33:33;7.63;;;6.93;;
2225;SDS011;1119;48.288;8.726;2022-09-24T00:36:01;7.17;;;6.20;;
2225;SDS011;1119;48.288;8.726;2022-09-24T00:38:30;7.80;;;7.00;;
2225;SDS011;1119;48.288;8.726;2022-09-24T00:40:58;7.13;;;6.53;;
2225;SDS011;1119;48.288;8.726;2022-09-24T00:43:28;7.40;;;6.93;;
2225;SDS011;1119;48.288;8.726;2022-09-24T00:46:01;7.57;;;6.87;;
2225;SDS011;1119;48.288;8.726;2022-09-24T00:48:40;6.63;;;6.20;;
2225;SDS011;1119;48.288;8.726;2022-09-24T00:51:08;7.00;;;6.40;;
2225;SDS011;1119;48.288;8.726;2022-09-24T00:53:39;7.13;;;6.53;;
2225;SDS011;1119;48.288;8.726;2022-09-24T00:56:07;7.17;;;6.57;;
2225;SDS011;1119;48.288;8.726;2022-09-24T00:58:39;6.90;;;6.40;;
2225;SDS011;1119;48.288;8.726;2022-09-24T01:01:13;8.00;;;7.50;;
2225;SDS011;1119;48.288;8.726;2022-09-24T01:03:42;6.80;;;6.30;;
2225;SDS011;1119;48.288;8.726;2022-09-24T01:06:09;6.33;;;5.83;;
2225;SDS011;1119;48.288;8.726;2022-09-24T01:08:37;7.33;;;6.87;;
2225;SDS011;1119;48.288;8.726;2022-09-24T01:11:08;12.30;;;6.80;;
2225;SDS011;1119;48.288;8.726;2022-09-24T01:13:53;6.73;;;6.30;;
2225;SDS011;1119;48.288;8.726;2022-09-24T01:16:53;8.60;;;7.90;;
2225;SDS011;1119;48.288;8.726;2022-09-24T01:19:37;7.50;;;6.80;;
2225;SDS011;1119;48.288;8.726;2022-09-24T01:22:41;7.00;;;6.50;;
2225;SDS011;1119;48.288;8.726;2022-09-24T01:25:25;6.87;;;6.33;;
2225;SDS011;1119;48.288;8.726;2022-09-24T01:28:00;8.30;;;6.27;;
2225;SDS011;1119;48.288;8.726;2022-09-24T01:30:45;6.47;;;5.97;;
2225;SDS011;1119;48.288;8.726;2022-09-24T01:33:19;8.37;;;7.13;;
2225;SDS011;1119;48.288;8.726;2022-09-24T01:35:50;13.33;;;7.40;;
2225;SDS011;1119;48.288;8.726;2022-09-24T01:38:22;7.83;;;7.13;;
2225;SDS011;1119;48.288;8.726;2022-09-24T01:40:52;6.63;;;6.00;;
2225;SDS011;1119;48.288;8.726;2022-09-24T01:43:23;6.93;;;6.37;;
2225;SDS011;1119;48.288;8.726;2022-09-24T01:45:54;7.90;;;7.10;;
2225;SDS011;1119;48.288;8.726;2022-09-24T01:48:23;6.80;;;6.30;;
2225;SDS011;1119;48.288;8.726;2022-09-24T01:50:53;7.33;;;6.53;;
2225;SDS011;1119;48.288;8.726;2022-09-24T01:53:25;7.60;;;6.90;;
2225;SDS011;1119;48.288;8.726;2022-09-24T01:55:57;8.10;;;7.10;;
2225;SDS011;1119;48.288;8.726;2022-09-24T01:58:30;7.30;;;6.60;;
2225;SDS011;1119;48.288;8.726;2022-09-24T02:01:07;7.60;;;7.00;;
2225;SDS011;1119;48.288;8.726;2022-09-24T02:03:40;7.33;;;6.60;;
2225;SDS011;1119;48.288;8.726;2022-09-24T02:06:12;6.90;;;6.20;;
2225;SDS011;1119;48.288;8.726;2022-09-24T02:08:43;7.90;;;7.20;;
2225;SDS011;1119;48.288;8.726;2022-09-24T02:11:13;8.00;;;7.30;;
2225;SDS011;1119;48.288;8.726;2022-09-24T02:13:44;11.33;;;7.40;;
2225;SDS011;1119;48.288;8.726;2022-09-24T02:16:20;6.63;;;6.23;;
2225;SDS011;1119;48.288;8.726;2022-09-24T02:18:51;8.30;;;7.30;;
2225;SDS011;1119;48.288;8.726;2022-09-24T02:21:22;8.70;;;7.80;;
2225;SDS011;1119;48.288;8.726;2022-09-24T02:23:52;8.50;;;7.80;;
2225;SDS011;1119;48.288;8.726;2022-09-24T02:26:26;11.67;;;7.70;;
2225;SDS011;1119;48.288;8.726;2022-09-24T02:28:53;8.97;;;8.13;;
2225;SDS011;1119;48.288;8.726;2022-09-24T02:31:23;7.97;;;7.37;;
2225;SDS011;1119;48.288;8.726;2022-09-24T02:33:54;7.70;;;7.10;;
2225;SDS011;1119;48.288;8.726;2022-09-24T02:36:43;8.50;;;7.87;;
2225;SDS011;1119;48.288;8.726;2022-09-24T02:39:11;8.20;;;7.60;;
2225;SDS011;1119;48.288;8.726;2022-09-24T02:41:38;8.20;;;7.60;;
2225;SDS011;1119;48.288;8.726;2022-09-24T02:44:07;8.37;;;7.50;;
2225;SDS011;1119;48.288;8.726;2022-09-24T02:46:35;8.30;;;7.50;;
2225;SDS011;1119;48.288;8.726;2022-09-24T02:49:03;9.70;;;8.73;;
2225;SDS011;1119;48.288;8.726;2022-09-24T02:51:30;7.80;;;6.97;;
2225;SDS011;1119;48.288;8.726;2022-09-24T02:53:57;8.13;;;7.40;;
2225;SDS011;1119;48.288;8.726;2022-09-24T02:56:25;9.00;;;7.67;;
2225;SDS011;1119;48.288;8.726;2022-09-24T02:58:53;7.90;;;7.30;;
2225;SDS011;1119;48.288;8.726;2022-09-24T03:01:20;7.73;;;7.23;;
2225;SDS011;1119;48.288;8.726;2022-09-24T03:03:50;8.37;;;7.67;;
2225;SDS011;1119;48.288;8.726;2022-09-24T03:06:17;7.77;;;7.17;;
2225;SDS011;1119;48.288;8.726;2022-09-24T03:08:44;8.50;;;7.70;;
2225;SDS011;1119;48.288;8.726;2022-09-24T03:11:12;7.80;;;7.20;;
2225;SDS011;1119;48.288;8.726;2022-09-24T03:13:40;7.20;;;6.70;;
2225;SDS011;1119;48.288;8.726;2022-09-24T03:16:07;7.60;;;6.40;;
2225;SDS011;1119;48.288;8.726;2022-09-24T03:18:34;7.97;;;6.60;;
2225;SDS011;1119;48.288;8.726;2022-09-24T03:21:03;7.63;;;6.90;;
2225;SDS011;1119;48.288;8.726;2022-09-24T03:23:32;7.20;;;6.70;;
2225;SDS011;1119;48.288;8.726;2022-09-24T03:26:00;11.63;;;7.23;;
2225;SDS011;1119;48.288;8.726;2022-09-24T03:28:28;7.30;;;6.70;;
2225;SDS011;1119;48.288;8.726;2022-09-24T03:30:55;7.40;;;6.90;;
2225;SDS011;1119;48.288;8.726;2022-09-24T03:33:25;7.27;;;6.70;;
2225;SDS011;1119;48.288;8.726;2022-09-24T03:35:54;7.80;;;7.20;;
2225;SDS011;1119;48.288;8.726;2022-09-24T03:38:23;8.37;;;7.57;;
2225;SDS011;1119;48.288;8.726;2022-09-24T03:40:50;6.73;;;6.23;;
2225;SDS011;1119;48.288;8.726;2022-09-24T03:43:18;9.60;;;7.07;;
2225;SDS011;1119;48.288;8.726;2022-09-24T03:45:45;7.10;;;6.40;;
2225;SDS011;1119;48.288;8.726;2022-09-24T03:48:13;7.07;;;6.40;;
2225;SDS011;1119;48.288;8.726;2022-09-24T03:50:40;7.77;;;7.07;;
2225;SDS011;1119;48.288;8.726;2022-09-24T03:53:13;7.83;;;7.23;;
2225;SDS011;1119;48.288;8.726;2022-09-24T03:55:43;7.90;;;7.30;;
2225;SDS011;1119;48.288;8.726;2022-09-24T03:58:13;8.83;;;8.23;;
2225;SDS011;1119;48.288;8.726;2022-09-24T04:00:41;8.37;;;7.67;;
2225;SDS011;1119;48.288;8.726;2022-09-24T04:03:08;7.60;;;6.93;;
2225;SDS011;1119;48.288;8.726;2022-09-24T04:05:36;6.80;;;6.30;;
2225;SDS011;1119;48.288;8.726;2022-09-24T04:08:04;9.80;;;7.10;;
2225;SDS011;1119;48.288;8.726;2022-09-24T04:10:31;8.80;;;7.93;;
2225;SDS011;1119;48.288;8.726;2022-09-24T04:12:59;12.20;;;8.30;;
2225;SDS011;1119;48.288;8.726;2022-09-24T04:15:27;8.23;;;7.63;;
2225;SDS011;1119;48.288;8.726;2022-09-24T04:17:55;8.00;;;7.40;;
2225;SDS011;1119;48.288;8.726;2022-09-24T04:20:25;8.60;;;7.90;;
2225;SDS011;1119;48.288;8.726;2022-09-24T04:22:55;7.77;;;7.17;;
2225;SDS011;1119;48.288;8.726;2022-09-24T04:25:30;8.20;;;7.57;;
2225;SDS011;1119;48.288;8.726;2022-09-24T04:27:58;8.77;;;8.13;;
2225;SDS011;1119;48.288;8.726;2022-09-24T04:30:30;7.90;;;7.00;;
2225;SDS011;1119;48.288;8.726;2022-09-24T04:32:59;9.97;;;9.07;;
2225;SDS011;1119;48.288;8.726;2022-09-24T04:35:28;10.70;;;8.50;;
2225;SDS011;1119;48.288;8.726;2022-09-24T04:37:57;7.83;;;7.27;;
2225;SDS011;1119;48.288;8.726;2022-09-24T04:40:24;8.27;;;7.67;;
2225;SDS011;1119;48.288;8.726;2022-09-24T04:42:52;7.80;;;7.40;;
2225;SDS011;1119;48.288;8.726;2022-09-24T04:45:21;8.90;;;8.20;;
2225;SDS011;1119;48.288;8.726;2022-09-24T04:47:49;8.30;;;7.60;;
2225;SDS011;1119;48.288;8.726;2022-09-24T04:50:18;8.20;;;7.60;;
2225;SDS011;1119;48.288;8.726;2022-09-24T04:52:51;10.50;;;8.70;;
2225;SDS011;1119;48.288;8.726;2022-09-24T04:55:18;8.37;;;7.63;;
2225;SDS011;1119;48.288;8.726;2022-09-24T04:57:46;10.70;;;9.60;;
2225;SDS011;1119;48.288;8.726;2022-09-24T05:00:16;8.50;;;7.67;;
2225;SDS011;1119;48.288;8.726;2022-09-24T05:02:47;12.20;;;9.00;;
2225;SDS011;1119;48.288;8.726;2022-09-24T05:05:22;7.83;;;7.23;;
2225;SDS011;1119;48.288;8.726;2022-09-24T05:07:49;8.87;;;8.00;;
2225;SDS011;1119;48.288;8.726;2022-09-24T05:10:16;8.30;;;7.60;;
2225;SDS011;1119;48.288;8.726;2022-09-24T05:12:44;7.97;;;7.20;;
2225;SDS011;1119;48.288;8.726;2022-09-24T05:15:11;8.27;;;7.70;;
2225;SDS011;1119;48.288;8.726;2022-09-24T05:17:38;8.70;;;8.00;;
2225;SDS011;1119;48.288;8.726;2022-09-24T05:20:07;8.03;;;7.50;;
2225;SDS011;1119;48.288;8.726;2022-09-24T05:22:39;9.20;;;8.50;;
2225;SDS011;1119;48.288;8.726;2022-09-24T05:25:06;7.90;;;7.30;;
2225;SDS011;1119;48.288;8.726;2022-09-24T05:27:33;8.10;;;7.40;;
2225;SDS011;1119;48.288;8.726;2022-09-24T05:30:00;7.87;;;7.27;;
2225;SDS011;1119;48.288;8.726;2022-09-24T05:32:27;9.63;;;8.83;;
2225;SDS011;1119;48.288;8.726;2022-09-24T05:34:54;9.03;;;8.23;;
2225;SDS011;1119;48.288;8.726;2022-09-24T05:37:22;9.77;;;9.00;;
2225;SDS011;1119;48.288;8.726;2022-09-24T05:39:49;8.70;;;7.90;;
2225;SDS011;1119;48.288;8.726;2022-09-24T05:42:18;8.60;;;8.00;;
2225;SDS011;1119;48.288;8.726;2022-09-24T05:44:45;7.73;;;7.13;;
2225;SDS011;1119;48.288;8.726;2022-09-24T05:47:12;8.50;;;7.57;;
2225;SDS011;1119;48.288;8.726;2022-09-24T05:49:39;9.40;;;8.50;;
2225;SDS011;1119;48.288;8.726;2022-09-24T05:52:07;9.33;;;8.53;;
2225;SDS011;1119;48.288;8.726;2022-09-24T05:54:35;10.70;;;8.77;;
2225;SDS011;1119;48.288;8.726;2022-09-24T05:57:02;7.97;;;7.40;;
2225;SDS011;1119;48.288;8.726;2022-09-24T05:59:29;8.47;;;7.77;;
2225;SDS011;1119;48.288;8.726;2022-09-24T06:01:56;8.50;;;7.90;;
2225;SDS011;1119;48.288;8.726;2022-09-24T06:04:23;8.37;;;7.77;;
2225;SDS011;1119;48.288;8.726;2022-09-24T06:06:52;8.40;;;7.80;;
2225;SDS011;1119;48.288;8.726;2022-09-24T06:09:20;8.60;;;7.90;;
2225;SDS011;1119;48.288;8.726;2022-09-24T06:11:48;8.73;;;7.67;;
2225;SDS011;1119;48.288;8.726;2022-09-24T06:14:18;8.33;;;7.73;;
2225;SDS011;1119;48.288;8.726;2022-09-24T06:16:45;7.90;;;7.20;;
2225;SDS011;1119;48.288;8.726;2022-09-24T06:19:12;7.87;;;7.17;;
2225;SDS011;1119;48.288;8.726;2022-09-24T06:21:39;7.57;;;6.87;;
2225;SDS011;1119;48.288;8.726;2022-09-24T06:24:06;6.97;;;6.50;;
2225;SDS011;1119;48.288;8.726;2022-09-24T06:26:33;7.17;;;6.40;;
2225;SDS011;1119;48.288;8.726;2022-09-24T06:29:02;7.43;;;6.90;;
2225;SDS011;1119;48.288;8.726;2022-09-24T06:31:29;6.80;;;6.30;;
2225;SDS011;1119;48.288;8.726;2022-09-24T06:33:56;6.53;;;5.93;;
2225;SDS011;1119;48.288;8.726;2022-09-24T06:36:24;6.50;;;5.50;;
2225;SDS011;1119;48.288;8.726;2022-09-24T06:38:51;7.27;;;6.77;;
2225;SDS011;1119;48.288;8.726;2022-09-24T06:41:18;6.23;;;5.73;;
2225;SDS011;1119;48.288;8.726;2022-09-24T06:43:46;7.30;;;6.60;;
2225;SDS011;1119;48.288;8.726;2022-09-24T06:46:14;6.00;;;5.50;;
2225;SDS011;1119;48.288;8.726;2022-09-24T06:48:42;6.50;;;5.90;;
2225;SDS011;1119;48.288;8.726;2022-09-24T06:51:09;6.07;;;5.57;;
2225;SDS011;1119;48.288;8.726;2022-09-24T06:53:36;6.03;;;5.20;;
2225;SDS011;1119;48.288;8.726;2022-09-24T06:56:03;4.67;;;4.47;;
2225;SDS011;1119;48.288;8.726;2022-09-24T06:58:31;4.40;;;4.13;;
2225;SDS011;1119;48.288;8.726;2022-09-24T07:00:59;4.73;;;4.50;;
2225;SDS011;1119;48.288;8.726;2022-09-24T07:03:29;4.80;;;4.50;;
2225;SDS011;1119;48.288;8.726;2022-09-24T07:05:59;5.70;;;5.40;;
2225;SDS011;1119;48.288;8.726;2022-09-24T07:08:28;4.77;;;4.57;;
2225;SDS011;1119;48.288;8.726;2022-09-24T07:10:55;5.13;;;4.83;;
2225;SDS011;1119;48.288;8.726;2022-09-24T07:13:23;6.30;;;5.90;;
2225;SDS011;1119;48.288;8.726;2022-09-24T07:15:50;6.13;;;5.70;;
2225;SDS011;1119;48.288;8.726;2022-09-24T07:18:18;13.80;;;4.77;;
2225;SDS011;1119;48.288;8.726;2022-09-24T07:20:51;5.47;;;5.07;;
2225;SDS011;1119;48.288;8.726;2022-09-24T07:23:19;6.33;;;5.73;;
2225;SDS011;1119;48.288;8.726;2022-09-24T07:25:46;5.00;;;4.70;;
2225;SDS011;1119;48.288;8.726;2022-09-24T07:28:14;5.50;;;5.10;;
2225;SDS011;1119;48.288;8.726;2022-09-24T07:30:42;5.47;;;5.17;;
2225;SDS011;1119;48.288;8.726;2022-09-24T07:33:10;5.17;;;4.77;;
2225;SDS011;1119;48.288;8.726;2022-09-24T07:35:37;5.23;;;4.93;;
2225;SDS011;1119;48.288;8.726;2022-09-24T07:38:07;5.57;;;5.17;;
2225;SDS011;1119;48.288;8.726;2022-09-24T07:40:37;5.30;;;5.00;;
2225;SDS011;1119;48.288;8.726;2022-09-24T07:43:23;4.80;;;4.40;;
2225;SDS011;1119;48.288;8.726;2022-09-24T07:45:51;6.03;;;5.63;;
2225;SDS011;1119;48.288;8.726;2022-09-24T07:48:18;6.07;;;5.67;;
2225;SDS011;1119;48.288;8.726;2022-09-24T07:50:45;5.93;;;5.47;;
2225;SDS011;1119;48.288;8.726;2022-09-24T07:53:14;6.30;;;5.70;;
2225;SDS011;1119;48.288;8.726;2022-09-24T07:55:41;6.00;;;5.23;;
2225;SDS011;1119;48.288;8.726;2022-09-24T07:58:10;5.43;;;5.03;;
2225;SDS011;1119;48.288;8.726;2022-09-24T08:00:38;6.33;;;5.83;;
2225;SDS011;1119;48.288;8.726;2022-09-24T08:03:24;5.10;;;4.77;;
2225;SDS011;1119;48.288;8.726;2022-09-24T08:05:51;5.57;;;5.10;;
2225;SDS011;1119;48.288;8.726;2022-09-24T08:08:23;6.23;;;5.73;;
2225;SDS011;1119;48.288;8.726;2022-09-24T08:10:50;8.33;;;5.60;;
2225;SDS011;1119;48.288;8.726;2022-09-24T08:13:17;5.77;;;5.37;;
2225;SDS011;1119;48.288;8.726;2022-09-24T08:15:44;5.90;;;5.50;;
2225;SDS011;1119;48.288;8.726;2022-09-24T08:18:11;5.80;;;5.30;;
2225;SDS011;1119;48.288;8.726;2022-09-24T08:20:38;5.97;;;5.53;;
2225;SDS011;1119;48.288;8.726;2022-09-24T08:23:06;6.40;;;5.50;;
2225;SDS011;1119;48.288;8.726;2022-09-24T08:25:36;6.33;;;5.90;;
2225;SDS011;1119;48.288;8.726;2022-09-24T08:28:04;5.47;;;5.07;;
2225;SDS011;1119;48.288;8.726;2022-09-24T08:30:33;5.13;;;4.83;;
2225;SDS011;1119;48.288;8.726;2022-09-24T08:33:01;5.73;;;5.33;;
2225;SDS011;1119;48.288;8.726;2022-09-24T08:35:29;6.47;;;5.97;;
2225;SDS011;1119;48.288;8.726;2022-09-24T08:37:56;12.10;;;9.70;;
2225;SDS011;1119;48.288;8.726;2022-09-24T08:40:26;6.90;;;6.40;;
2225;SDS011;1119;48.288;8.726;2022-09-24T08:42:58;5.47;;;5.10;;
2225;SDS011;1119;48.288;8.726;2022-09-24T08:45:38;5.47;;;5.17;;
2225;SDS011;1119;48.288;8.726;2022-09-24T08:48:27;6.17;;;5.57;;
2225;SDS011;1119;48.288;8.726;2022-09-24T08:50:59;7.23;;;5.90;;
2225;SDS011;1119;48.288;8.726;2022-09-24T08:53:32;8.10;;;6.07;;
2225;SDS011;1119;48.288;8.726;2022-09-24T08:56:09;6.47;;;5.97;;
2225;SDS011;1119;48.288;8.726;2022-09-24T08:58:42;5.73;;;5.40;;
2225;SDS011;1119;48.288;8.726;2022-09-24T09:01:16;6.40;;;5.90;;
2225;SDS011;1119;48.288;8.726;2022-09-24T09:03:56;6.10;;;5.70;;
2225;SDS011;1119;48.288;8.726;2022-09-24T09:06:37;6.67;;;4.73;;
2225;SDS011;1119;48.288;8.726;2022-09-24T09:09:20;7.03;;;6.40;;
2225;SDS011;1119;48.288;8.726;2022-09-24T09:11:50;6.20;;;5.80;;
2225;SDS011;1119;48.288;8.726;2022-09-24T09:14:24;6.70;;;6.00;;
2225;SDS011;1119;48.288;8.726;2022-09-24T09:17:04;6.63;;;6.10;;
2225;SDS011;1119;48.288;8.726;2022-09-24T09:19:44;5.77;;;5.37;;
2225;SDS011;1119;48.288;8.726;2022-09-24T09:22:22;5.67;;;5.37;;
2225;SDS011;1119;48.288;8.726;2022-09-24T09:24:54;5.80;;;5.50;;
2225;SDS011;1119;48.288;8.726;2022-09-24T09:27:26;5.87;;;5.50;;
2225;SDS011;1119;48.288;8.726;2022-09-24T09:29:56;6.00;;;5.57;;
2225;SDS011;1119;48.288;8.726;2022-09-24T09:32:30;6.37;;;5.77;;
2225;SDS011;1119;48.288;8.726;2022-09-24T09:35:10;6.10;;;5.77;;
2225;SDS011;1119;48.288;8.726;2022-09-24T09:37:46;5.30;;;5.00;;
2225;SDS011;1119;48.288;8.726;2022-09-24T09:40:24;5.60;;;5.30;;
2225;SDS011;1119;48.288;8.726;2022-09-24T09:42:58;5.93;;;5.50;;
2225;SDS011;1119;48.288;8.726;2022-09-24T09:45:30;7.57;;;6.97;;
2225;SDS011;1119;48.288;8.726;2022-09-24T09:48:04;7.83;;;7.33;;
2225;SDS011;1119;48.288;8.726;2022-09-24T09:50:38;7.07;;;6.57;;
2225;SDS011;1119;48.288;8.726;2022-09-24T09:53:17;6.20;;;5.80;;
2225;SDS011;1119;48.288;8.726;2022-09-24T09:55:50;6.10;;;5.80;;
2225;SDS011;1119;48.288;8.726;2022-09-24T09:58:21;5.90;;;5.50;;
2225;SDS011;1119;48.288;8.726;2022-09-24T10:00:51;5.97;;;5.53;;
2225;SDS011;1119;48.288;8.726;2022-09-24T10:03:30;6.33;;;6.03;;
2225;SDS011;1119;48.288;8.726;2022-09-24T10:06:00;5.63;;;5.27;;
2225;SDS011;1119;48.288;8.726;2022-09-24T10:08:30;4.93;;;4.53;;
2225;SDS011;1119;48.288;8.726;2022-09-24T10:10:58;6.07;;;5.67;;
2225;SDS011;1119;48.288;8.726;2022-09-24T10:13:27;5.30;;;4.90;;
2225;SDS011;1119;48.288;8.726;2022-09-24T10:15:58;5.50;;;5.20;;
2225;SDS011;1119;48.288;8.726;2022-09-24T10:18:29;5.90;;;5.43;;
2225;SDS011;1119;48.288;8.726;2022-09-24T10:20:59;5.70;;;5.17;;
2225;SDS011;1119;48.288;8.726;2022-09-24T10:23:31;5.27;;;4.97;;
2225;SDS011;1119;48.288;8.726;2022-09-24T10:26:05;5.67;;;5.27;;
2225;SDS011;1119;48.288;8.726;2022-09-24T10:28:39;5.73;;;5.33;;
2225;SDS011;1119;48.288;8.726;2022-09-24T10:31:30;5.50;;;5.07;;
2225;SDS011;1119;48.288;8.726;2022-09-24T10:34:01;5.83;;;5.43;;
2225;SDS011;1119;48.288;8.726;2022-09-24T10:36:31;6.13;;;5.73;;
2225;SDS011;1119;48.288;8.726;2022-09-24T10:39:02;7.80;;;5.00;;
2225;SDS011;1119;48.288;8.726;2022-09-24T10:41:36;5.80;;;5.40;;
2225;SDS011;1119;48.288;8.726;2022-09-24T10:44:04;5.73;;;5.43;;
2225;SDS011;1119;48.288;8.726;2022-09-24T10:49:49;6.40;;;5.90;;
2225;SDS011;1119;48.288;8.726;2022-09-24T10:52:52;5.33;;;4.93;;
2225;SDS011;1119;48.288;8.726;2022-09-24T10:55:44;5.10;;;4.70;;
2225;SDS011;1119;48.288;8.726;2022-09-24T10:58:32;5.13;;;4.83;;
2225;SDS011;1119;48.288;8.726;2022-09-24T11:01:21;4.93;;;4.60;;
2225;SDS011;1119;48.288;8.726;2022-09-24T11:04:07;5.93;;;5.47;;
2225;SDS011;1119;48.288;8.726;2022-09-24T11:06:56;4.80;;;4.50;;
2225;SDS011;1119;48.288;8.726;2022-09-24T11:10:18;5.20;;;4.73;;
2225;SDS011;1119;48.288;8.726;2022-09-24T11:12:54;5.13;;;4.73;;
2225;SDS011;1119;48.288;8.726;2022-09-24T11:15:41;5.20;;;4.80;;
2225;SDS011;1119;48.288;8.726;2022-09-24T11:18:29;5.50;;;5.10;;
2225;SDS011;1119;48.288;8.726;2022-09-24T11:21:11;4.83;;;4.57;;
2225;SDS011;1119;48.288;8.726;2022-09-24T11:24:00;6.00;;;5.50;;
2225;SDS011;1119;48.288;8.726;2022-09-24T11:26:53;7.03;;;6.43;;
2225;SDS011;1119;48.288;8.726;2022-09-24T11:29:50;7.93;;;7.27;;
2225;SDS011;1119;48.288;8.726;2022-09-24T11:32:33;8.73;;;6.40;;
2225;SDS011;1119;48.288;8.726;2022-09-24T11:38:20;6.27;;;5.67;;
2225;SDS011;1119;48.288;8.726;2022-09-24T11:41:03;6.23;;;5.83;;
2225;SDS011;1119;48.288;8.726;2022-09-24T11:43:49;10.33;;;9.43;;
2225;SDS011;1119;48.288;8.726;2022-09-24T11:47:05;5.97;;;5.67;;
2225;SDS011;1119;48.288;8.726;2022-09-24T11:49:49;5.23;;;4.87;;
2225;SDS011;1119;48.288;8.726;2022-09-24T11:52:31;5.70;;;5.20;;
2225;SDS011;1119;48.288;8.726;2022-09-24T11:55:04;5.40;;;5.10;;
2225;SDS011;1119;48.288;8.726;2022-09-24T11:57:42;5.10;;;4.90;;
2225;SDS011;1119;48.288;8.726;2022-09-24T12:00:15;5.10;;;4.80;;
2225;SDS011;1119;48.288;8.726;2022-09-24T12:02:46;4.83;;;4.53;;
2225;SDS011;1119;48.288;8.726;2022-09-24T12:05:17;5.03;;;4.70;;
2225;SDS011;1119;48.288;8.726;2022-09-24T12:07:52;4.73;;;4.43;;
2225;SDS011;1119;48.288;8.726;2022-09-24T12:10:26;5.33;;;4.93;;
2225;SDS011;1119;48.288;8.726;2022-09-24T12:13:01;5.00;;;4.60;;
2225;SDS011;1119;48.288;8.726;2022-09-24T12:15:41;5.13;;;4.83;;
2225;SDS011;1119;48.288;8.726;2022-09-24T12:18:15;6.10;;;5.60;;
2225;SDS011;1119;48.288;8.726;2022-09-24T12:20:48;7.33;;;6.73;;
2225;SDS011;1119;48.288;8.726;2022-09-24T12:23:20;6.13;;;5.57;;
2225;SDS011;1119;48.288;8.726;2022-09-24T12:25:54;7.20;;;6.70;;
2225;SDS011;1119;48.288;8.726;2022-09-24T12:28:24;5.47;;;5.07;;
2225;SDS011;1119;48.288;8.726;2022-09-24T12:31:18;6.10;;;5.70;;
2225;SDS011;1119;48.288;8.726;2022-09-24T12:34:13;5.90;;;5.50;;
2225;SDS011;1119;48.288;8.726;2022-09-24T12:36:49;5.00;;;4.73;;
2225;SDS011;1119;48.288;8.726;2022-09-24T12:39:24;5.00;;;4.70;;
2225;SDS011;1119;48.288;8.726;2022-09-24T12:41:58;5.30;;;4.90;;
2225;SDS011;1119;48.288;8.726;2022-09-24T12:44:30;5.07;;;4.67;;
2225;SDS011;1119;48.288;8.726;2022-09-24T12:47:10;4.97;;;4.67;;
2225;SDS011;1119;48.288;8.726;2022-09-24T12:49:46;7.43;;;6.83;;
2225;SDS011;1119;48.288;8.726;2022-09-24T12:52:20;5.63;;;5.13;;
2225;SDS011;1119;48.288;8.726;2022-09-24T12:54:55;6.33;;;5.60;;
2225;SDS011;1119;48.288;8.726;2022-09-24T12:57:33;5.93;;;5.63;;
2225;SDS011;1119;48.288;8.726;2022-09-24T13:00:03;5.53;;;5.23;;
2225;SDS011;1119;48.288;8.726;2022-09-24T13:03:01;5.77;;;5.37;;
2225;SDS011;1119;48.288;8.726;2022-09-24T13:05:32;7.37;;;6.00;;
2225;SDS011;1119;48.288;8.726;2022-09-24T13:08:22;6.00;;;5.60;;
2225;SDS011;1119;48.288;8.726;2022-09-24T13:10:52;9.60;;;8.70;;
2225;SDS011;1119;48.288;8.726;2022-09-24T13:13:22;8.77;;;8.07;;
2225;SDS011;1119;48.288;8.726;2022-09-24T13:15:59;5.93;;;5.47;;
2225;SDS011;1119;48.288;8.726;2022-09-24T13:18:29;4.93;;;4.53;;
2225;SDS011;1119;48.288;8.726;2022-09-24T13:20:59;5.73;;;5.43;;
2225;SDS011;1119;48.288;8.726;2022-09-24T13:23:42;5.30;;;5.00;;
2225;SDS011;1119;48.288;8.726;2022-09-24T13:26:24;5.70;;;5.40;;
2225;SDS011;1119;48.288;8.726;2022-09-24T13:29:00;5.60;;;5.30;;
2225;SDS011;1119;48.288;8.726;2022-09-24T13:31:32;5.77;;;5.37;;
2225;SDS011;1119;48.288;8.726;2022-09-24T13:34:11;7.00;;;6.40;;
2225;SDS011;1119;48.288;8.726;2022-09-24T13:36:44;6.10;;;5.70;;
2225;SDS011;1119;48.288;8.726;2022-09-24T13:39:19;7.37;;;6.97;;
2225;SDS011;1119;48.288;8.726;2022-09-24T13:41:52;6.70;;;6.10;;
2225;SDS011;1119;48.288;8.726;2022-09-24T13:44:30;6.73;;;6.27;;
2225;SDS011;1119;48.288;8.726;2022-09-24T13:47:03;7.97;;;7.27;;
2225;SDS011;1119;48.288;8.726;2022-09-24T13:49:38;6.17;;;5.70;;
2225;SDS011;1119;48.288;8.726;2022-09-24T13:52:11;6.87;;;6.40;;
2225;SDS011;1119;48.288;8.726;2022-09-24T13:54:47;6.80;;;6.30;;
2225;SDS011;1119;48.288;8.726;2022-09-24T13:57:21;6.70;;;6.10;;
2225;SDS011;1119;48.288;8.726;2022-09-24T14:00:11;6.87;;;6.37;;
2225;SDS011;1119;48.288;8.726;2022-09-24T14:02:45;6.63;;;6.20;;
2225;SDS011;1119;48.288;8.726;2022-09-24T14:05:20;7.13;;;6.53;;
2225;SDS011;1119;48.288;8.726;2022-09-24T14:07:55;9.60;;;8.80;;
2225;SDS011;1119;48.288;8.726;2022-09-24T14:10:27;9.57;;;8.60;;
2225;SDS011;1119;48.288;8.726;2022-09-24T14:12:58;11.23;;;10.33;;
2225;SDS011;1119;48.288;8.726;2022-09-24T14:15:56;12.13;;;11.00;;
2225;SDS011;1119;48.288;8.726;2022-09-24T14:18:27;9.00;;;8.30;;
2225;SDS011;1119;48.288;8.726;2022-09-24T14:20:55;8.03;;;7.43;;
2225;SDS011;1119;48.288;8.726;2022-09-24T14:23:29;9.17;;;8.30;;
2225;SDS011;1119;48.288;8.726;2022-09-24T14:26:01;6.73;;;6.17;;
2225;SDS011;1119;48.288;8.726;2022-09-24T14:28:30;6.67;;;6.27;;
2225;SDS011;1119;48.288;8.726;2022-09-24T14:31:00;8.13;;;7.53;;
2225;SDS011;1119;48.288;8.726;2022-09-24T14:33:29;10.33;;;9.10;;
2225;SDS011;1119;48.288;8.726;2022-09-24T14:35:58;7.97;;;7.27;;
2225;SDS011;1119;48.288;8.726;2022-09-24T14:38:28;6.57;;;6.13;;
2225;SDS011;1119;48.288;8.726;2022-09-24T14:41:00;7.27;;;6.83;;
2225;SDS011;1119;48.288;8.726;2022-09-24T14:43:33;8.53;;;7.83;;
2225;SDS011;1119;48.288;8.726;2022-09-24T14:46:13;5.43;;;5.07;;
2225;SDS011;1119;48.288;8.726;2022-09-24T14:48:46;6.50;;;6.00;;
2225;SDS011;1119;48.288;8.726;2022-09-24T14:51:21;7.93;;;7.43;;
2225;SDS011;1119;48.288;8.726;2022-09-24T14:53:56;6.50;;;5.90;;
2225;SDS011;1119;48.288;8.726;2022-09-24T14:56:25;6.27;;;5.87;;
2225;SDS011;1119;48.288;8.726;2022-09-24T14:58:55;6.10;;;5.60;;
2225;SDS011;1119;48.288;8.726;2022-09-24T15:01:28;6.80;;;6.30;;
2225;SDS011;1119;48.288;8.726;2022-09-24T15:03:57;7.00;;;6.50;;
2225;SDS011;1119;48.288;8.726;2022-09-24T15:06:28;5.43;;;5.03;;
2225;SDS011;1119;48.288;8.726;2022-09-24T15:08:58;6.50;;;6.13;;
2225;SDS011;1119;48.288;8.726;2022-09-24T15:11:28;7.60;;;6.10;;
2225;SDS011;1119;48.288;8.726;2022-09-24T15:13:58;6.87;;;6.40;;
2225;SDS011;1119;48.288;8.726;2022-09-24T15:16:30;8.70;;;7.93;;
2225;SDS011;1119;48.288;8.726;2022-09-24T15:19:12;9.27;;;7.40;;
2225;SDS011;1119;48.288;8.726;2022-09-24T15:21:44;6.47;;;6.07;;
2225;SDS011;1119;48.288;8.726;2022-09-24T15:24:13;8.83;;;8.13;;
2225;SDS011;1119;48.288;8.726;2022-09-24T15:26:41;7.73;;;7.23;;
2225;SDS011;1119;48.288;8.726;2022-09-24T15:29:14;7.50;;;6.80;;
2225;SDS011;1119;48.288;8.726;2022-09-24T15:31:49;6.90;;;6.40;;
2225;SDS011;1119;48.288;8.726;2022-09-24T15:34:16;6.37;;;5.87;;
2225;SDS011;1119;48.288;8.726;2022-09-24T15:36:44;6.07;;;5.67;;
2225;SDS011;1119;48.288;8.726;2022-09-24T15:39:11;8.53;;;7.90;;
2225;SDS011;1119;48.288;8.726;2022-09-24T15:41:39;8.20;;;7.60;;
2225;SDS011;1119;48.288;8.726;2022-09-24T15:44:07;7.10;;;6.60;;
2225;SDS011;1119;48.288;8.726;2022-09-24T15:46:44;7.37;;;6.87;;
2225;SDS011;1119;48.288;8.726;2022-09-24T15:49:16;6.37;;;5.87;;
2225;SDS011;1119;48.288;8.726;2022-09-24T15:51:46;6.27;;;5.67;;
2225;SDS011;1119;48.288;8.726;2022-09-24T15:54:14;5.57;;;5.17;;